sensor_id;sensor_type;location;lat;lon;timestamp;P1;durP1;ratioP1;P2;durP2;ratioP2
22937;SDS011;11634;42.734;23.298;2024-02-21T00:01:50;8.50;;;7.38;;
22937;SDS011;11634;42.734;23.298;2024-02-21T00:04:17;7.93;;;7.00;;
22937;SDS011;11634;42.734;23.298;2024-02-21T00:06:42;9.15;;;7.72;;
22937;SDS011;11634;42.734;23.298;2024-02-21T00:09:08;7.53;;;6.38;;
22937;SDS011;11634;42.734;23.298;2024-02-21T00:11:35;7.38;;;6.60;;
22937;SDS011;11634;42.734;23.298;2024-02-21T00:14:00;9.77;;;7.65;;
22937;SDS011;11634;42.734;23.298;2024-02-21T00:16:26;9.43;;;7.95;;
22937;SDS011;11634;42.734;23.298;2024-02-21T00:18:52;9.75;;;7.40;;
22937;SDS011;11634;42.734;23.298;2024-02-21T00:21:17;10.70;;;7.90;;
22937;SDS011;11634;42.734;23.298;2024-02-21T00:23:46;8.10;;;7.18;;
22937;SDS011;11634;42.734;23.298;2024-02-21T00:26:12;8.38;;;7.15;;
22937;SDS011;11634;42.734;23.298;2024-02-21T00:28:38;7.05;;;6.03;;
22937;SDS011;11634;42.734;23.298;2024-02-21T00:31:04;7.75;;;6.95;;
22937;SDS011;11634;42.734;23.298;2024-02-21T00:33:30;8.02;;;6.20;;
22937;SDS011;11634;42.734;23.298;2024-02-21T00:35:56;9.40;;;7.18;;
22937;SDS011;11634;42.734;23.298;2024-02-21T00:38:21;9.07;;;7.78;;
22937;SDS011;11634;42.734;23.298;2024-02-21T00:40:47;8.52;;;7.13;;
22937;SDS011;11634;42.734;23.298;2024-02-21T00:43:12;8.55;;;7.03;;
22937;SDS011;11634;42.734;23.298;2024-02-21T00:45:38;8.45;;;7.07;;
22937;SDS011;11634;42.734;23.298;2024-02-21T00:48:04;9.57;;;7.35;;
22937;SDS011;11634;42.734;23.298;2024-02-21T00:50:29;8.88;;;7.28;;
22937;SDS011;11634;42.734;23.298;2024-02-21T00:52:55;8.48;;;7.20;;
22937;SDS011;11634;42.734;23.298;2024-02-21T00:55:20;8.75;;;6.10;;
22937;SDS011;11634;42.734;23.298;2024-02-21T00:57:46;7.90;;;6.85;;
22937;SDS011;11634;42.734;23.298;2024-02-21T01:00:12;8.55;;;6.70;;
22937;SDS011;11634;42.734;23.298;2024-02-21T01:02:39;7.63;;;6.22;;
22937;SDS011;11634;42.734;23.298;2024-02-21T01:05:04;8.15;;;6.53;;
22937;SDS011;11634;42.734;23.298;2024-02-21T01:07:31;7.25;;;6.55;;
22937;SDS011;11634;42.734;23.298;2024-02-21T01:09:56;7.15;;;5.93;;
22937;SDS011;11634;42.734;23.298;2024-02-21T01:12:22;6.82;;;5.72;;
22937;SDS011;11634;42.734;23.298;2024-02-21T01:14:47;8.07;;;6.68;;
22937;SDS011;11634;42.734;23.298;2024-02-21T01:17:14;6.90;;;5.97;;
22937;SDS011;11634;42.734;23.298;2024-02-21T01:19:40;7.93;;;6.70;;
22937;SDS011;11634;42.734;23.298;2024-02-21T01:22:05;8.48;;;7.15;;
22937;SDS011;11634;42.734;23.298;2024-02-21T01:24:31;7.55;;;6.60;;
22937;SDS011;11634;42.734;23.298;2024-02-21T01:26:57;8.25;;;7.32;;
22937;SDS011;11634;42.734;23.298;2024-02-21T01:29:22;7.95;;;6.80;;
22937;SDS011;11634;42.734;23.298;2024-02-21T01:31:48;7.93;;;6.85;;
22937;SDS011;11634;42.734;23.298;2024-02-21T01:34:14;8.23;;;6.63;;
22937;SDS011;11634;42.734;23.298;2024-02-21T01:36:39;7.68;;;6.82;;
22937;SDS011;11634;42.734;23.298;2024-02-21T01:39:07;8.40;;;6.47;;
22937;SDS011;11634;42.734;23.298;2024-02-21T01:41:32;8.10;;;7.15;;
22937;SDS011;11634;42.734;23.298;2024-02-21T01:43:58;9.27;;;6.63;;
22937;SDS011;11634;42.734;23.298;2024-02-21T01:46:24;7.40;;;6.60;;
22937;SDS011;11634;42.734;23.298;2024-02-21T01:48:56;9.57;;;6.57;;
22937;SDS011;11634;42.734;23.298;2024-02-21T01:51:22;6.93;;;6.15;;
22937;SDS011;11634;42.734;23.298;2024-02-21T01:53:48;7.47;;;6.68;;
22937;SDS011;11634;42.734;23.298;2024-02-21T01:56:15;7.53;;;6.35;;
22937;SDS011;11634;42.734;23.298;2024-02-21T01:58:41;7.55;;;6.60;;
22937;SDS011;11634;42.734;23.298;2024-02-21T02:01:07;7.18;;;6.05;;
22937;SDS011;11634;42.734;23.298;2024-02-21T02:03:33;7.57;;;6.07;;
22937;SDS011;11634;42.734;23.298;2024-02-21T02:06:00;8.00;;;6.38;;
22937;SDS011;11634;42.734;23.298;2024-02-21T02:08:25;7.88;;;6.82;;
22937;SDS011;11634;42.734;23.298;2024-02-21T02:10:51;7.55;;;6.57;;
22937;SDS011;11634;42.734;23.298;2024-02-21T02:13:17;9.13;;;7.05;;
22937;SDS011;11634;42.734;23.298;2024-02-21T02:15:46;9.50;;;7.50;;
22937;SDS011;11634;42.734;23.298;2024-02-21T02:18:12;8.93;;;7.70;;
22937;SDS011;11634;42.734;23.298;2024-02-21T02:20:40;9.63;;;7.40;;
22937;SDS011;11634;42.734;23.298;2024-02-21T02:23:25;10.85;;;8.13;;
22937;SDS011;11634;42.734;23.298;2024-02-21T02:25:51;8.57;;;7.47;;
22937;SDS011;11634;42.734;23.298;2024-02-21T02:28:17;8.88;;;7.82;;
22937;SDS011;11634;42.734;23.298;2024-02-21T02:30:43;10.52;;;8.88;;
22937;SDS011;11634;42.734;23.298;2024-02-21T02:33:08;9.35;;;8.35;;
22937;SDS011;11634;42.734;23.298;2024-02-21T02:35:34;9.50;;;8.50;;
22937;SDS011;11634;42.734;23.298;2024-02-21T02:38:02;9.88;;;8.43;;
22937;SDS011;11634;42.734;23.298;2024-02-21T02:40:28;8.85;;;7.95;;
22937;SDS011;11634;42.734;23.298;2024-02-21T02:42:54;11.77;;;8.13;;
22937;SDS011;11634;42.734;23.298;2024-02-21T02:45:23;8.98;;;7.47;;
22937;SDS011;11634;42.734;23.298;2024-02-21T02:47:49;8.43;;;7.55;;
22937;SDS011;11634;42.734;23.298;2024-02-21T02:50:14;9.23;;;7.60;;
22937;SDS011;11634;42.734;23.298;2024-02-21T02:52:40;9.18;;;8.23;;
22937;SDS011;11634;42.734;23.298;2024-02-21T02:55:06;10.20;;;7.75;;
22937;SDS011;11634;42.734;23.298;2024-02-21T02:57:31;9.75;;;7.97;;
22937;SDS011;11634;42.734;23.298;2024-02-21T02:59:57;8.82;;;7.90;;
22937;SDS011;11634;42.734;23.298;2024-02-21T03:02:23;10.10;;;8.60;;
22937;SDS011;11634;42.734;23.298;2024-02-21T03:04:48;10.55;;;8.93;;
22937;SDS011;11634;42.734;23.298;2024-02-21T03:07:14;10.25;;;8.95;;
22937;SDS011;11634;42.734;23.298;2024-02-21T03:09:40;10.50;;;9.40;;
22937;SDS011;11634;42.734;23.298;2024-02-21T03:12:08;11.77;;;10.10;;
22937;SDS011;11634;42.734;23.298;2024-02-21T03:14:33;11.90;;;10.43;;
22937;SDS011;11634;42.734;23.298;2024-02-21T03:16:59;11.65;;;8.95;;
22937;SDS011;11634;42.734;23.298;2024-02-21T03:19:25;12.00;;;9.82;;
22937;SDS011;11634;42.734;23.298;2024-02-21T03:21:52;11.13;;;9.93;;
22937;SDS011;11634;42.734;23.298;2024-02-21T03:24:21;11.35;;;9.30;;
22937;SDS011;11634;42.734;23.298;2024-02-21T03:26:46;12.80;;;10.77;;
22937;SDS011;11634;42.734;23.298;2024-02-21T03:29:16;11.93;;;10.18;;
22937;SDS011;11634;42.734;23.298;2024-02-21T03:31:42;12.95;;;11.07;;
22937;SDS011;11634;42.734;23.298;2024-02-21T03:34:07;14.02;;;10.40;;
22937;SDS011;11634;42.734;23.298;2024-02-21T03:36:37;11.85;;;10.27;;
22937;SDS011;11634;42.734;23.298;2024-02-21T03:39:03;12.57;;;10.80;;
22937;SDS011;11634;42.734;23.298;2024-02-21T03:41:28;11.88;;;10.55;;
22937;SDS011;11634;42.734;23.298;2024-02-21T03:43:54;14.13;;;11.40;;
22937;SDS011;11634;42.734;23.298;2024-02-21T03:46:19;12.02;;;10.05;;
22937;SDS011;11634;42.734;23.298;2024-02-21T03:48:45;11.80;;;10.40;;
22937;SDS011;11634;42.734;23.298;2024-02-21T03:51:10;12.40;;;10.80;;
22937;SDS011;11634;42.734;23.298;2024-02-21T03:53:36;13.82;;;10.90;;
22937;SDS011;11634;42.734;23.298;2024-02-21T03:56:02;12.57;;;10.77;;
22937;SDS011;11634;42.734;23.298;2024-02-21T03:58:31;14.00;;;11.52;;
22937;SDS011;11634;42.734;23.298;2024-02-21T04:00:59;12.63;;;10.95;;
22937;SDS011;11634;42.734;23.298;2024-02-21T04:03:25;14.18;;;11.50;;
22937;SDS011;11634;42.734;23.298;2024-02-21T04:05:50;12.77;;;11.02;;
22937;SDS011;11634;42.734;23.298;2024-02-21T04:08:16;12.95;;;11.25;;
22937;SDS011;11634;42.734;23.298;2024-02-21T04:10:41;14.02;;;11.70;;
22937;SDS011;11634;42.734;23.298;2024-02-21T04:13:07;13.15;;;10.35;;
22937;SDS011;11634;42.734;23.298;2024-02-21T04:15:32;13.77;;;11.65;;
22937;SDS011;11634;42.734;23.298;2024-02-21T04:17:58;14.23;;;11.88;;
22937;SDS011;11634;42.734;23.298;2024-02-21T04:20:24;14.50;;;11.45;;
22937;SDS011;11634;42.734;23.298;2024-02-21T04:22:49;15.00;;;12.52;;
22937;SDS011;11634;42.734;23.298;2024-02-21T04:25:16;15.50;;;12.48;;
22937;SDS011;11634;42.734;23.298;2024-02-21T04:27:42;15.18;;;12.48;;
22937;SDS011;11634;42.734;23.298;2024-02-21T04:30:09;14.32;;;11.63;;
22937;SDS011;11634;42.734;23.298;2024-02-21T04:32:35;18.05;;;12.52;;
22937;SDS011;11634;42.734;23.298;2024-02-21T04:35:01;14.57;;;12.50;;
22937;SDS011;11634;42.734;23.298;2024-02-21T04:37:27;15.13;;;11.70;;
22937;SDS011;11634;42.734;23.298;2024-02-21T04:39:53;16.08;;;12.95;;
22937;SDS011;11634;42.734;23.298;2024-02-21T04:42:26;17.23;;;14.32;;
22937;SDS011;11634;42.734;23.298;2024-02-21T04:44:51;17.00;;;13.88;;
22937;SDS011;11634;42.734;23.298;2024-02-21T04:47:18;16.70;;;14.02;;
22937;SDS011;11634;42.734;23.298;2024-02-21T04:49:46;15.18;;;13.32;;
22937;SDS011;11634;42.734;23.298;2024-02-21T04:52:11;15.82;;;12.95;;
22937;SDS011;11634;42.734;23.298;2024-02-21T04:54:37;15.90;;;13.05;;
22937;SDS011;11634;42.734;23.298;2024-02-21T04:57:03;15.85;;;13.43;;
22937;SDS011;11634;42.734;23.298;2024-02-21T04:59:29;15.60;;;13.18;;
22937;SDS011;11634;42.734;23.298;2024-02-21T05:01:55;18.17;;;14.05;;
22937;SDS011;11634;42.734;23.298;2024-02-21T05:04:20;17.80;;;13.30;;
22937;SDS011;11634;42.734;23.298;2024-02-21T05:06:46;15.98;;;12.82;;
22937;SDS011;11634;42.734;23.298;2024-02-21T05:09:11;18.67;;;14.52;;
22937;SDS011;11634;42.734;23.298;2024-02-21T05:11:37;16.33;;;13.27;;
22937;SDS011;11634;42.734;23.298;2024-02-21T05:14:03;17.95;;;14.32;;
22937;SDS011;11634;42.734;23.298;2024-02-21T05:16:31;15.80;;;13.52;;
22937;SDS011;11634;42.734;23.298;2024-02-21T05:18:57;17.55;;;14.63;;
22937;SDS011;11634;42.734;23.298;2024-02-21T05:21:23;18.92;;;14.85;;
22937;SDS011;11634;42.734;23.298;2024-02-21T05:23:50;22.50;;;17.05;;
22937;SDS011;11634;42.734;23.298;2024-02-21T05:26:22;23.58;;;18.25;;
22937;SDS011;11634;42.734;23.298;2024-02-21T05:28:49;19.98;;;15.35;;
22937;SDS011;11634;42.734;23.298;2024-02-21T05:31:17;20.55;;;15.85;;
22937;SDS011;11634;42.734;23.298;2024-02-21T05:33:44;24.63;;;18.35;;
22937;SDS011;11634;42.734;23.298;2024-02-21T05:36:10;22.10;;;17.92;;
22937;SDS011;11634;42.734;23.298;2024-02-21T05:38:36;21.63;;;16.70;;
22937;SDS011;11634;42.734;23.298;2024-02-21T05:41:02;22.67;;;16.90;;
22937;SDS011;11634;42.734;23.298;2024-02-21T05:43:27;24.98;;;19.58;;
22937;SDS011;11634;42.734;23.298;2024-02-21T05:45:53;23.80;;;18.40;;
22937;SDS011;11634;42.734;23.298;2024-02-21T05:48:19;19.95;;;16.83;;
22937;SDS011;11634;42.734;23.298;2024-02-21T05:50:44;21.85;;;18.02;;
22937;SDS011;11634;42.734;23.298;2024-02-21T05:53:13;22.55;;;16.42;;
22937;SDS011;11634;42.734;23.298;2024-02-21T05:55:38;26.13;;;19.67;;
22937;SDS011;11634;42.734;23.298;2024-02-21T05:58:04;25.23;;;19.75;;
22937;SDS011;11634;42.734;23.298;2024-02-21T06:00:31;23.30;;;18.65;;
22937;SDS011;11634;42.734;23.298;2024-02-21T06:03:00;20.15;;;16.40;;
22937;SDS011;11634;42.734;23.298;2024-02-21T06:05:28;21.85;;;16.58;;
22937;SDS011;11634;42.734;23.298;2024-02-21T06:07:53;20.08;;;15.73;;
22937;SDS011;11634;42.734;23.298;2024-02-21T06:10:19;21.02;;;15.57;;
22937;SDS011;11634;42.734;23.298;2024-02-21T06:12:45;21.02;;;16.27;;
22937;SDS011;11634;42.734;23.298;2024-02-21T06:15:11;28.98;;;20.02;;
22937;SDS011;11634;42.734;23.298;2024-02-21T06:17:37;41.88;;;22.90;;
22937;SDS011;11634;42.734;23.298;2024-02-21T06:20:02;25.92;;;18.20;;
22937;SDS011;11634;42.734;23.298;2024-02-21T06:22:28;19.17;;;14.55;;
22937;SDS011;11634;42.734;23.298;2024-02-21T06:24:55;16.70;;;13.95;;
22937;SDS011;11634;42.734;23.298;2024-02-21T06:27:21;18.65;;;13.55;;
22937;SDS011;11634;42.734;23.298;2024-02-21T06:29:46;16.63;;;13.55;;
22937;SDS011;11634;42.734;23.298;2024-02-21T06:32:12;16.23;;;12.57;;
22937;SDS011;11634;42.734;23.298;2024-02-21T06:34:37;18.67;;;15.13;;
22937;SDS011;11634;42.734;23.298;2024-02-21T06:37:03;17.67;;;14.27;;
22937;SDS011;11634;42.734;23.298;2024-02-21T06:39:30;16.23;;;14.07;;
22937;SDS011;11634;42.734;23.298;2024-02-21T06:41:55;18.00;;;14.88;;
22937;SDS011;11634;42.734;23.298;2024-02-21T06:44:21;20.48;;;14.43;;
22937;SDS011;11634;42.734;23.298;2024-02-21T06:46:47;17.70;;;14.88;;
22937;SDS011;11634;42.734;23.298;2024-02-21T06:49:12;18.15;;;15.38;;
22937;SDS011;11634;42.734;23.298;2024-02-21T06:51:43;16.83;;;13.95;;
22937;SDS011;11634;42.734;23.298;2024-02-21T06:54:09;16.40;;;14.60;;
22937;SDS011;11634;42.734;23.298;2024-02-21T06:56:35;25.42;;;16.85;;
22937;SDS011;11634;42.734;23.298;2024-02-21T06:59:01;22.80;;;17.02;;
22937;SDS011;11634;42.734;23.298;2024-02-21T07:01:28;19.85;;;15.90;;
22937;SDS011;11634;42.734;23.298;2024-02-21T07:03:54;17.58;;;15.02;;
22937;SDS011;11634;42.734;23.298;2024-02-21T07:06:22;19.70;;;16.40;;
22937;SDS011;11634;42.734;23.298;2024-02-21T07:08:48;24.60;;;20.70;;
22937;SDS011;11634;42.734;23.298;2024-02-21T07:11:14;20.40;;;15.77;;
22937;SDS011;11634;42.734;23.298;2024-02-21T07:13:39;20.23;;;15.93;;
22937;SDS011;11634;42.734;23.298;2024-02-21T07:16:05;24.63;;;18.27;;
22937;SDS011;11634;42.734;23.298;2024-02-21T07:18:32;19.55;;;15.80;;
22937;SDS011;11634;42.734;23.298;2024-02-21T07:20:59;20.48;;;17.38;;
22937;SDS011;11634;42.734;23.298;2024-02-21T07:23:24;18.33;;;15.13;;
22937;SDS011;11634;42.734;23.298;2024-02-21T07:25:50;20.73;;;17.25;;
22937;SDS011;11634;42.734;23.298;2024-02-21T07:28:15;24.73;;;19.58;;
22937;SDS011;11634;42.734;23.298;2024-02-21T07:30:42;21.67;;;16.48;;
22937;SDS011;11634;42.734;23.298;2024-02-21T07:33:08;19.40;;;16.33;;
22937;SDS011;11634;42.734;23.298;2024-02-21T07:35:33;24.67;;;17.83;;
22937;SDS011;11634;42.734;23.298;2024-02-21T07:37:59;20.00;;;16.88;;
22937;SDS011;11634;42.734;23.298;2024-02-21T07:40:24;21.92;;;17.27;;
22937;SDS011;11634;42.734;23.298;2024-02-21T07:42:50;28.33;;;20.17;;
22937;SDS011;11634;42.734;23.298;2024-02-21T07:45:15;22.52;;;17.85;;
22937;SDS011;11634;42.734;23.298;2024-02-21T07:47:42;22.13;;;17.92;;
22937;SDS011;11634;42.734;23.298;2024-02-21T07:50:08;23.60;;;17.48;;
22937;SDS011;11634;42.734;23.298;2024-02-21T07:52:33;25.83;;;17.98;;
22937;SDS011;11634;42.734;23.298;2024-02-21T07:54:59;23.55;;;17.27;;
22937;SDS011;11634;42.734;23.298;2024-02-21T07:57:24;25.55;;;17.85;;
22937;SDS011;11634;42.734;23.298;2024-02-21T07:59:50;21.27;;;16.83;;
22937;SDS011;11634;42.734;23.298;2024-02-21T08:02:15;19.58;;;16.17;;
22937;SDS011;11634;42.734;23.298;2024-02-21T08:04:41;24.80;;;18.83;;
22937;SDS011;11634;42.734;23.298;2024-02-21T08:07:07;24.00;;;17.23;;
22937;SDS011;11634;42.734;23.298;2024-02-21T08:09:32;24.80;;;17.92;;
22937;SDS011;11634;42.734;23.298;2024-02-21T08:11:58;26.67;;;16.95;;
22937;SDS011;11634;42.734;23.298;2024-02-21T08:14:23;21.90;;;17.52;;
22937;SDS011;11634;42.734;23.298;2024-02-21T08:16:50;20.15;;;16.92;;
22937;SDS011;11634;42.734;23.298;2024-02-21T08:19:16;20.50;;;16.10;;
22937;SDS011;11634;42.734;23.298;2024-02-21T08:21:42;19.88;;;15.55;;
22937;SDS011;11634;42.734;23.298;2024-02-21T08:24:07;21.05;;;16.00;;
22937;SDS011;11634;42.734;23.298;2024-02-21T08:26:33;44.45;;;23.27;;
22937;SDS011;11634;42.734;23.298;2024-02-21T08:28:59;28.70;;;18.58;;
22937;SDS011;11634;42.734;23.298;2024-02-21T08:31:26;21.65;;;15.85;;
22937;SDS011;11634;42.734;23.298;2024-02-21T08:34:02;17.83;;;14.73;;
22937;SDS011;11634;42.734;23.298;2024-02-21T08:36:38;19.83;;;14.93;;
22937;SDS011;11634;42.734;23.298;2024-02-21T08:39:03;19.83;;;15.27;;
22937;SDS011;11634;42.734;23.298;2024-02-21T08:41:33;21.38;;;15.43;;
22937;SDS011;11634;42.734;23.298;2024-02-21T08:43:59;20.25;;;15.65;;
22937;SDS011;11634;42.734;23.298;2024-02-21T08:46:25;18.95;;;15.45;;
22937;SDS011;11634;42.734;23.298;2024-02-21T08:48:52;17.58;;;14.52;;
22937;SDS011;11634;42.734;23.298;2024-02-21T08:51:17;21.50;;;15.00;;
22937;SDS011;11634;42.734;23.298;2024-02-21T08:53:46;19.25;;;14.77;;
22937;SDS011;11634;42.734;23.298;2024-02-21T08:56:12;16.25;;;14.50;;
22937;SDS011;11634;42.734;23.298;2024-02-21T08:58:38;24.80;;;17.10;;
22937;SDS011;11634;42.734;23.298;2024-02-21T09:01:05;21.48;;;14.38;;
22937;SDS011;11634;42.734;23.298;2024-02-21T09:03:31;22.23;;;14.57;;
22937;SDS011;11634;42.734;23.298;2024-02-21T09:05:56;19.50;;;14.48;;
22937;SDS011;11634;42.734;23.298;2024-02-21T09:08:22;16.13;;;13.02;;
22937;SDS011;11634;42.734;23.298;2024-02-21T09:10:49;19.90;;;15.18;;
22937;SDS011;11634;42.734;23.298;2024-02-21T09:13:15;16.95;;;14.18;;
22937;SDS011;11634;42.734;23.298;2024-02-21T09:15:40;15.88;;;13.38;;
22937;SDS011;11634;42.734;23.298;2024-02-21T09:18:06;17.05;;;13.65;;
22937;SDS011;11634;42.734;23.298;2024-02-21T09:20:31;18.77;;;13.73;;
22937;SDS011;11634;42.734;23.298;2024-02-21T09:22:57;15.88;;;13.43;;
22937;SDS011;11634;42.734;23.298;2024-02-21T09:25:22;18.42;;;14.27;;
22937;SDS011;11634;42.734;23.298;2024-02-21T09:27:48;15.75;;;13.20;;
22937;SDS011;11634;42.734;23.298;2024-02-21T09:30:14;16.35;;;12.55;;
22937;SDS011;11634;42.734;23.298;2024-02-21T09:32:39;18.58;;;14.80;;
22937;SDS011;11634;42.734;23.298;2024-02-21T09:35:05;15.52;;;13.93;;
22937;SDS011;11634;42.734;23.298;2024-02-21T09:37:31;17.45;;;13.82;;
22937;SDS011;11634;42.734;23.298;2024-02-21T09:39:57;17.63;;;14.38;;
22937;SDS011;11634;42.734;23.298;2024-02-21T09:42:24;14.13;;;12.07;;
22937;SDS011;11634;42.734;23.298;2024-02-21T09:44:54;14.25;;;11.93;;
22937;SDS011;11634;42.734;23.298;2024-02-21T09:47:22;16.02;;;13.82;;
22937;SDS011;11634;42.734;23.298;2024-02-21T09:49:49;15.20;;;12.88;;
22937;SDS011;11634;42.734;23.298;2024-02-21T09:52:15;15.05;;;12.98;;
22937;SDS011;11634;42.734;23.298;2024-02-21T09:54:41;21.33;;;13.63;;
22937;SDS011;11634;42.734;23.298;2024-02-21T09:57:10;15.95;;;14.05;;
22937;SDS011;11634;42.734;23.298;2024-02-21T09:59:36;15.85;;;14.07;;
22937;SDS011;11634;42.734;23.298;2024-02-21T10:02:03;13.82;;;12.35;;
22937;SDS011;11634;42.734;23.298;2024-02-21T10:04:30;13.40;;;12.05;;
22937;SDS011;11634;42.734;23.298;2024-02-21T10:06:56;13.30;;;11.90;;
22937;SDS011;11634;42.734;23.298;2024-02-21T10:09:25;13.65;;;11.20;;
22937;SDS011;11634;42.734;23.298;2024-02-21T10:11:54;16.75;;;11.80;;
22937;SDS011;11634;42.734;23.298;2024-02-21T10:14:21;11.65;;;10.45;;
22937;SDS011;11634;42.734;23.298;2024-02-21T10:16:47;12.02;;;10.85;;
22937;SDS011;11634;42.734;23.298;2024-02-21T10:19:19;13.32;;;11.13;;
22937;SDS011;11634;42.734;23.298;2024-02-21T10:21:57;10.95;;;9.27;;
22937;SDS011;11634;42.734;23.298;2024-02-21T10:24:26;11.23;;;10.02;;
22937;SDS011;11634;42.734;23.298;2024-02-21T10:26:59;13.02;;;11.10;;
22937;SDS011;11634;42.734;23.298;2024-02-21T10:29:25;9.60;;;8.57;;
22937;SDS011;11634;42.734;23.298;2024-02-21T10:31:51;10.65;;;8.63;;
22937;SDS011;11634;42.734;23.298;2024-02-21T10:34:16;9.43;;;8.02;;
22937;SDS011;11634;42.734;23.298;2024-02-21T10:36:43;7.18;;;6.47;;
22937;SDS011;11634;42.734;23.298;2024-02-21T10:39:08;7.50;;;6.18;;
22937;SDS011;11634;42.734;23.298;2024-02-21T10:41:34;6.80;;;6.20;;
22937;SDS011;11634;42.734;23.298;2024-02-21T10:44:01;7.72;;;6.75;;
22937;SDS011;11634;42.734;23.298;2024-02-21T10:46:30;7.60;;;6.90;;
22937;SDS011;11634;42.734;23.298;2024-02-21T10:51:23;7.93;;;5.88;;
22937;SDS011;11634;42.734;23.298;2024-02-21T10:56:38;6.75;;;5.68;;
22937;SDS011;11634;42.734;23.298;2024-02-21T10:59:05;6.82;;;5.90;;
22937;SDS011;11634;42.734;23.298;2024-02-21T11:01:31;6.88;;;5.93;;
22937;SDS011;11634;42.734;23.298;2024-02-21T11:03:58;8.07;;;6.07;;
22937;SDS011;11634;42.734;23.298;2024-02-21T11:06:23;5.50;;;4.95;;
22937;SDS011;11634;42.734;23.298;2024-02-21T11:09:02;5.75;;;5.18;;
22937;SDS011;11634;42.734;23.298;2024-02-21T11:11:37;4.88;;;4.38;;
22937;SDS011;11634;42.734;23.298;2024-02-21T11:14:19;5.72;;;5.13;;
22937;SDS011;11634;42.734;23.298;2024-02-21T11:16:45;5.85;;;4.60;;
22937;SDS011;11634;42.734;23.298;2024-02-21T11:21:45;6.32;;;5.13;;
22937;SDS011;11634;42.734;23.298;2024-02-21T11:24:11;5.57;;;5.07;;
22937;SDS011;11634;42.734;23.298;2024-02-21T11:26:40;5.68;;;5.10;;
22937;SDS011;11634;42.734;23.298;2024-02-21T11:29:07;8.10;;;5.13;;
22937;SDS011;11634;42.734;23.298;2024-02-21T11:31:38;6.45;;;5.18;;
22937;SDS011;11634;42.734;23.298;2024-02-21T11:34:03;5.63;;;5.07;;
22937;SDS011;11634;42.734;23.298;2024-02-21T11:36:48;5.53;;;4.85;;
22937;SDS011;11634;42.734;23.298;2024-02-21T11:39:21;8.30;;;5.72;;
22937;SDS011;11634;42.734;23.298;2024-02-21T11:42:09;6.53;;;5.93;;
22937;SDS011;11634;42.734;23.298;2024-02-21T11:44:34;5.63;;;5.13;;
22937;SDS011;11634;42.734;23.298;2024-02-21T11:47:00;6.50;;;5.90;;
22937;SDS011;11634;42.734;23.298;2024-02-21T11:49:26;6.35;;;5.75;;
22937;SDS011;11634;42.734;23.298;2024-02-21T11:52:01;6.43;;;5.75;;
22937;SDS011;11634;42.734;23.298;2024-02-21T11:54:29;6.82;;;4.45;;
22937;SDS011;11634;42.734;23.298;2024-02-21T11:56:58;7.53;;;5.50;;
22937;SDS011;11634;42.734;23.298;2024-02-21T11:59:24;5.68;;;5.03;;
22937;SDS011;11634;42.734;23.298;2024-02-21T12:01:49;7.57;;;6.55;;
22937;SDS011;11634;42.734;23.298;2024-02-21T12:04:17;6.82;;;5.88;;
22937;SDS011;11634;42.734;23.298;2024-02-21T12:06:44;8.50;;;5.40;;
22937;SDS011;11634;42.734;23.298;2024-02-21T12:09:13;7.28;;;6.22;;
22937;SDS011;11634;42.734;23.298;2024-02-21T12:11:39;6.60;;;5.90;;
22937;SDS011;11634;42.734;23.298;2024-02-21T12:14:05;7.60;;;5.88;;
22937;SDS011;11634;42.734;23.298;2024-02-21T12:16:31;5.30;;;4.80;;
22937;SDS011;11634;42.734;23.298;2024-02-21T12:18:58;5.25;;;4.70;;
22937;SDS011;11634;42.734;23.298;2024-02-21T12:21:27;7.18;;;5.40;;
22937;SDS011;11634;42.734;23.298;2024-02-21T12:23:55;6.93;;;5.47;;
22937;SDS011;11634;42.734;23.298;2024-02-21T12:26:23;7.45;;;5.85;;
22937;SDS011;11634;42.734;23.298;2024-02-21T12:28:49;6.72;;;5.50;;
22937;SDS011;11634;42.734;23.298;2024-02-21T12:31:15;8.07;;;6.07;;
22937;SDS011;11634;42.734;23.298;2024-02-21T12:33:42;9.25;;;6.60;;
22937;SDS011;11634;42.734;23.298;2024-02-21T12:36:07;9.27;;;6.85;;
22937;SDS011;11634;42.734;23.298;2024-02-21T12:38:34;9.07;;;7.68;;
22937;SDS011;11634;42.734;23.298;2024-02-21T12:41:00;10.43;;;7.50;;
22937;SDS011;11634;42.734;23.298;2024-02-21T12:43:26;10.07;;;7.22;;
22937;SDS011;11634;42.734;23.298;2024-02-21T12:45:52;8.73;;;7.15;;
22937;SDS011;11634;42.734;23.298;2024-02-21T12:48:18;9.75;;;7.88;;
22937;SDS011;11634;42.734;23.298;2024-02-21T12:50:50;10.55;;;8.55;;
22937;SDS011;11634;42.734;23.298;2024-02-21T12:53:19;8.57;;;7.45;;
22937;SDS011;11634;42.734;23.298;2024-02-21T12:55:49;11.02;;;8.07;;
22937;SDS011;11634;42.734;23.298;2024-02-21T12:58:15;11.88;;;8.93;;
22937;SDS011;11634;42.734;23.298;2024-02-21T13:00:42;10.45;;;8.68;;
22937;SDS011;11634;42.734;23.298;2024-02-21T13:03:09;10.60;;;9.13;;
22937;SDS011;11634;42.734;23.298;2024-02-21T13:05:35;10.63;;;8.77;;
22937;SDS011;11634;42.734;23.298;2024-02-21T13:08:02;10.75;;;8.40;;
22937;SDS011;11634;42.734;23.298;2024-02-21T13:10:27;10.75;;;8.45;;
22937;SDS011;11634;42.734;23.298;2024-02-21T13:12:53;9.68;;;8.63;;
22937;SDS011;11634;42.734;23.298;2024-02-21T13:15:19;9.77;;;8.52;;
22937;SDS011;11634;42.734;23.298;2024-02-21T13:17:45;8.10;;;6.38;;
22937;SDS011;11634;42.734;23.298;2024-02-21T13:20:10;8.90;;;6.55;;
22937;SDS011;11634;42.734;23.298;2024-02-21T13:22:36;8.18;;;5.80;;
22937;SDS011;11634;42.734;23.298;2024-02-21T13:25:02;7.72;;;6.65;;
22937;SDS011;11634;42.734;23.298;2024-02-21T13:27:28;7.00;;;6.03;;
22937;SDS011;11634;42.734;23.298;2024-02-21T13:29:53;8.70;;;7.00;;
22937;SDS011;11634;42.734;23.298;2024-02-21T13:32:19;9.45;;;6.60;;
22937;SDS011;11634;42.734;23.298;2024-02-21T13:34:48;8.35;;;6.57;;
22937;SDS011;11634;42.734;23.298;2024-02-21T13:37:13;12.40;;;7.72;;
22937;SDS011;11634;42.734;23.298;2024-02-21T13:39:41;9.82;;;6.55;;
22937;SDS011;11634;42.734;23.298;2024-02-21T13:42:06;10.95;;;7.38;;
22937;SDS011;11634;42.734;23.298;2024-02-21T13:44:32;12.68;;;8.88;;
22937;SDS011;11634;42.734;23.298;2024-02-21T13:47:00;15.75;;;7.45;;
22937;SDS011;11634;42.734;23.298;2024-02-21T13:49:26;10.90;;;7.85;;
22937;SDS011;11634;42.734;23.298;2024-02-21T13:51:52;10.55;;;7.13;;
22937;SDS011;11634;42.734;23.298;2024-02-21T13:54:17;9.90;;;7.15;;
22937;SDS011;11634;42.734;23.298;2024-02-21T13:56:45;8.27;;;6.85;;
22937;SDS011;11634;42.734;23.298;2024-02-21T13:59:11;11.27;;;6.80;;
22937;SDS011;11634;42.734;23.298;2024-02-21T14:01:38;11.10;;;7.57;;
22937;SDS011;11634;42.734;23.298;2024-02-21T14:04:04;11.02;;;7.78;;
22937;SDS011;11634;42.734;23.298;2024-02-21T14:06:29;5.70;;;4.78;;
22937;SDS011;11634;42.734;23.298;2024-02-21T14:08:55;10.27;;;7.13;;
22937;SDS011;11634;42.734;23.298;2024-02-21T14:11:23;8.88;;;6.55;;
22937;SDS011;11634;42.734;23.298;2024-02-21T14:13:48;10.90;;;7.72;;
22937;SDS011;11634;42.734;23.298;2024-02-21T14:16:16;13.05;;;8.80;;
22937;SDS011;11634;42.734;23.298;2024-02-21T14:18:42;12.57;;;8.25;;
22937;SDS011;11634;42.734;23.298;2024-02-21T14:21:07;10.18;;;7.85;;
22937;SDS011;11634;42.734;23.298;2024-02-21T14:23:36;10.90;;;7.95;;
22937;SDS011;11634;42.734;23.298;2024-02-21T14:26:02;9.48;;;8.00;;